sensor_id;sensor_type;location;lat;lon;timestamp;temperature;humidity
17252;DHT22;8742;51.716;8.790;2022-09-25T00:00:49;13.60;99.90
17252;DHT22;8742;51.716;8.790;2022-09-25T00:03:18;13.60;99.90
17252;DHT22;8742;51.716;8.790;2022-09-25T00:05:46;13.60;99.90
17252;DHT22;8742;51.716;8.790;2022-09-25T00:08:14;13.60;99.90
17252;DHT22;8742;51.716;8.790;2022-09-25T00:10:42;13.60;99.90
17252;DHT22;8742;51.716;8.790;2022-09-25T00:13:09;13.60;99.90
17252;DHT22;8742;51.716;8.790;2022-09-25T00:15:36;13.60;99.90
17252;DHT22;8742;51.716;8.790;2022-09-25T00:18:03;13.60;99.90
17252;DHT22;8742;51.716;8.790;2022-09-25T00:20:31;13.60;99.90
17252;DHT22;8742;51.716;8.790;2022-09-25T00:22:57;13.60;99.90
17252;DHT22;8742;51.716;8.790;2022-09-25T00:25:27;13.60;99.90
17252;DHT22;8742;51.716;8.790;2022-09-25T00:27:53;13.60;99.90
17252;DHT22;8742;51.716;8.790;2022-09-25T00:30:21;13.60;99.90
17252;DHT22;8742;51.716;8.790;2022-09-25T00:32:48;13.60;99.90
17252;DHT22;8742;51.716;8.790;2022-09-25T00:35:15;13.60;99.90
17252;DHT22;8742;51.716;8.790;2022-09-25T00:37:43;13.60;99.90
17252;DHT22;8742;51.716;8.790;2022-09-25T00:40:10;13.60;99.90
17252;DHT22;8742;51.716;8.790;2022-09-25T00:42:37;13.60;99.90
17252;DHT22;8742;51.716;8.790;2022-09-25T00:45:05;13.60;99.90
17252;DHT22;8742;51.716;8.790;2022-09-25T00:47:52;13.60;99.90
17252;DHT22;8742;51.716;8.790;2022-09-25T00:50:26;13.60;99.90
17252;DHT22;8742;51.716;8.790;2022-09-25T00:53:00;13.60;99.90
17252;DHT22;8742;51.716;8.790;2022-09-25T00:55:29;13.60;99.90
17252;DHT22;8742;51.716;8.790;2022-09-25T00:57:58;13.60;99.90
17252;DHT22;8742;51.716;8.790;2022-09-25T01:00:25;13.60;99.90
17252;DHT22;8742;51.716;8.790;2022-09-25T01:02:54;13.60;99.90
17252;DHT22;8742;51.716;8.790;2022-09-25T01:05:24;13.60;99.90
17252;DHT22;8742;51.716;8.790;2022-09-25T01:07:52;13.60;99.90
17252;DHT22;8742;51.716;8.790;2022-09-25T01:10:23;13.60;99.90
17252;DHT22;8742;51.716;8.790;2022-09-25T01:12:51;13.60;99.90
17252;DHT22;8742;51.716;8.790;2022-09-25T01:15:21;13.60;99.90
17252;DHT22;8742;51.716;8.790;2022-09-25T01:17:57;13.60;99.90
17252;DHT22;8742;51.716;8.790;2022-09-25T01:20:42;13.60;99.90
17252;DHT22;8742;51.716;8.790;2022-09-25T01:23:19;13.60;99.90
17252;DHT22;8742;51.716;8.790;2022-09-25T01:26:00;13.60;99.90
17252;DHT22;8742;51.716;8.790;2022-09-25T01:28:45;13.50;99.90
17252;DHT22;8742;51.716;8.790;2022-09-25T01:31:20;13.60;99.90
17252;DHT22;8742;51.716;8.790;2022-09-25T01:33:55;13.50;99.90
17252;DHT22;8742;51.716;8.790;2022-09-25T01:36:27;13.50;99.90
17252;DHT22;8742;51.716;8.790;2022-09-25T01:38:56;13.50;99.90
17252;DHT22;8742;51.716;8.790;2022-09-25T01:41:34;13.50;99.90
17252;DHT22;8742;51.716;8.790;2022-09-25T01:44:10;13.50;99.90
17252;DHT22;8742;51.716;8.790;2022-09-25T01:46:41;13.50;99.90
17252;DHT22;8742;51.716;8.790;2022-09-25T01:49:15;13.50;99.90
17252;DHT22;8742;51.716;8.790;2022-09-25T01:51:45;13.50;99.90
17252;DHT22;8742;51.716;8.790;2022-09-25T01:54:17;13.50;99.90
17252;DHT22;8742;51.716;8.790;2022-09-25T01:56:50;13.50;99.90
17252;DHT22;8742;51.716;8.790;2022-09-25T01:59:24;13.50;99.90
17252;DHT22;8742;51.716;8.790;2022-09-25T02:01:54;13.40;99.90
17252;DHT22;8742;51.716;8.790;2022-09-25T02:04:24;13.40;99.90
17252;DHT22;8742;51.716;8.790;2022-09-25T02:06:55;13.40;99.90
17252;DHT22;8742;51.716;8.790;2022-09-25T02:09:28;13.40;99.90
17252;DHT22;8742;51.716;8.790;2022-09-25T02:12:00;13.40;99.90
17252;DHT22;8742;51.716;8.790;2022-09-25T02:14:35;13.40;99.90
17252;DHT22;8742;51.716;8.790;2022-09-25T02:17:06;13.40;99.90
17252;DHT22;8742;51.716;8.790;2022-09-25T02:19:37;13.30;99.90
17252;DHT22;8742;51.716;8.790;2022-09-25T02:22:24;13.30;99.90
17252;DHT22;8742;51.716;8.790;2022-09-25T02:24:56;13.30;99.90
17252;DHT22;8742;51.716;8.790;2022-09-25T02:27:25;13.30;99.90
17252;DHT22;8742;51.716;8.790;2022-09-25T02:29:55;13.30;99.90
17252;DHT22;8742;51.716;8.790;2022-09-25T02:32:28;13.30;99.90
17252;DHT22;8742;51.716;8.790;2022-09-25T02:34:55;13.30;99.90
17252;DHT22;8742;51.716;8.790;2022-09-25T02:37:24;13.30;99.90
17252;DHT22;8742;51.716;8.790;2022-09-25T02:39:54;13.30;99.90
17252;DHT22;8742;51.716;8.790;2022-09-25T02:42:29;13.30;99.90
17252;DHT22;8742;51.716;8.790;2022-09-25T02:45:20;13.30;99.90
17252;DHT22;8742;51.716;8.790;2022-09-25T02:47:59;13.30;99.90
17252;DHT22;8742;51.716;8.790;2022-09-25T02:50:33;13.20;99.90
17252;DHT22;8742;51.716;8.790;2022-09-25T02:53:05;13.20;99.90
17252;DHT22;8742;51.716;8.790;2022-09-25T02:55:38;13.20;99.90
17252;DHT22;8742;51.716;8.790;2022-09-25T02:58:08;13.20;99.90
17252;DHT22;8742;51.716;8.790;2022-09-25T03:00:41;13.20;99.90
17252;DHT22;8742;51.716;8.790;2022-09-25T03:03:12;13.20;99.90
17252;DHT22;8742;51.716;8.790;2022-09-25T03:05:40;13.20;99.90
17252;DHT22;8742;51.716;8.790;2022-09-25T03:08:08;13.20;99.90
17252;DHT22;8742;51.716;8.790;2022-09-25T03:10:53;13.20;99.90
17252;DHT22;8742;51.716;8.790;2022-09-25T03:13:22;13.20;99.90
17252;DHT22;8742;51.716;8.790;2022-09-25T03:15:56;13.20;99.90
17252;DHT22;8742;51.716;8.790;2022-09-25T03:18:24;13.20;99.90
17252;DHT22;8742;51.716;8.790;2022-09-25T03:20:51;13.20;99.90
17252;DHT22;8742;51.716;8.790;2022-09-25T03:23:18;13.20;99.90
17252;DHT22;8742;51.716;8.790;2022-09-25T03:25:45;13.20;99.90
17252;DHT22;8742;51.716;8.790;2022-09-25T03:28:13;13.20;99.90
17252;DHT22;8742;51.716;8.790;2022-09-25T03:30:40;13.20;99.90
17252;DHT22;8742;51.716;8.790;2022-09-25T03:33:10;13.20;99.90
17252;DHT22;8742;51.716;8.790;2022-09-25T03:35:38;13.20;99.90
17252;DHT22;8742;51.716;8.790;2022-09-25T03:38:05;13.20;99.90
17252;DHT22;8742;51.716;8.790;2022-09-25T03:40:35;13.20;99.90
17252;DHT22;8742;51.716;8.790;2022-09-25T03:43:01;13.20;99.90
17252;DHT22;8742;51.716;8.790;2022-09-25T03:45:28;13.20;99.90
17252;DHT22;8742;51.716;8.790;2022-09-25T03:47:55;13.20;99.90
17252;DHT22;8742;51.716;8.790;2022-09-25T03:50:23;13.20;99.90
17252;DHT22;8742;51.716;8.790;2022-09-25T03:52:50;13.20;99.90
17252;DHT22;8742;51.716;8.790;2022-09-25T03:55:17;13.20;99.90
17252;DHT22;8742;51.716;8.790;2022-09-25T03:57:44;13.10;99.90
17252;DHT22;8742;51.716;8.790;2022-09-25T04:00:12;13.10;99.90
17252;DHT22;8742;51.716;8.790;2022-09-25T04:02:39;13.10;99.90
17252;DHT22;8742;51.716;8.790;2022-09-25T04:05:06;13.10;99.90
17252;DHT22;8742;51.716;8.790;2022-09-25T04:07:35;13.10;99.90
17252;DHT22;8742;51.716;8.790;2022-09-25T04:10:02;13.10;99.90
17252;DHT22;8742;51.716;8.790;2022-09-25T04:12:30;13.10;99.90
17252;DHT22;8742;51.716;8.790;2022-09-25T04:14:57;13.10;99.90
17252;DHT22;8742;51.716;8.790;2022-09-25T04:17:24;13.10;99.90
17252;DHT22;8742;51.716;8.790;2022-09-25T04:19:50;13.10;99.90
17252;DHT22;8742;51.716;8.790;2022-09-25T04:22:17;13.10;99.90
17252;DHT22;8742;51.716;8.790;2022-09-25T04:24:45;13.00;99.90
17252;DHT22;8742;51.716;8.790;2022-09-25T04:27:15;13.00;99.90
17252;DHT22;8742;51.716;8.790;2022-09-25T04:29:43;13.00;99.90
17252;DHT22;8742;51.716;8.790;2022-09-25T04:32:10;13.00;99.90
17252;DHT22;8742;51.716;8.790;2022-09-25T04:34:51;13.00;99.90
17252;DHT22;8742;51.716;8.790;2022-09-25T04:37:18;13.10;99.90
17252;DHT22;8742;51.716;8.790;2022-09-25T04:39:48;13.00;99.90
17252;DHT22;8742;51.716;8.790;2022-09-25T04:42:15;13.00;99.90
17252;DHT22;8742;51.716;8.790;2022-09-25T04:44:42;13.10;99.90
17252;DHT22;8742;51.716;8.790;2022-09-25T04:47:09;13.00;99.90
17252;DHT22;8742;51.716;8.790;2022-09-25T04:49:35;13.00;99.90
17252;DHT22;8742;51.716;8.790;2022-09-25T04:52:03;13.00;99.90
17252;DHT22;8742;51.716;8.790;2022-09-25T04:54:31;13.00;99.90
17252;DHT22;8742;51.716;8.790;2022-09-25T04:56:59;13.00;99.90
17252;DHT22;8742;51.716;8.790;2022-09-25T04:59:27;13.00;99.90
17252;DHT22;8742;51.716;8.790;2022-09-25T05:01:54;13.00;99.90
17252;DHT22;8742;51.716;8.790;2022-09-25T05:04:21;13.00;99.90
17252;DHT22;8742;51.716;8.790;2022-09-25T05:06:48;13.00;99.90
17252;DHT22;8742;51.716;8.790;2022-09-25T05:09:16;13.00;99.90
17252;DHT22;8742;51.716;8.790;2022-09-25T05:11:44;13.00;99.90
17252;DHT22;8742;51.716;8.790;2022-09-25T05:14:13;13.00;99.90
17252;DHT22;8742;51.716;8.790;2022-09-25T05:16:40;13.00;99.90
17252;DHT22;8742;51.716;8.790;2022-09-25T05:19:06;13.00;99.90
17252;DHT22;8742;51.716;8.790;2022-09-25T05:21:33;13.00;99.90
17252;DHT22;8742;51.716;8.790;2022-09-25T05:24:00;13.00;99.90
17252;DHT22;8742;51.716;8.790;2022-09-25T05:26:28;13.00;99.90
17252;DHT22;8742;51.716;8.790;2022-09-25T05:28:55;13.00;99.90
17252;DHT22;8742;51.716;8.790;2022-09-25T05:31:23;13.00;99.90
17252;DHT22;8742;51.716;8.790;2022-09-25T05:33:50;13.00;99.90
17252;DHT22;8742;51.716;8.790;2022-09-25T05:36:19;12.90;99.90
17252;DHT22;8742;51.716;8.790;2022-09-25T05:38:46;12.90;99.90
17252;DHT22;8742;51.716;8.790;2022-09-25T05:41:13;13.00;99.90
17252;DHT22;8742;51.716;8.790;2022-09-25T05:43:42;13.00;99.90
17252;DHT22;8742;51.716;8.790;2022-09-25T05:46:10;13.00;99.90
17252;DHT22;8742;51.716;8.790;2022-09-25T05:48:38;13.00;99.90
17252;DHT22;8742;51.716;8.790;2022-09-25T05:51:05;13.00;99.90
17252;DHT22;8742;51.716;8.790;2022-09-25T05:53:32;13.00;99.90
17252;DHT22;8742;51.716;8.790;2022-09-25T05:56:01;13.00;99.90
17252;DHT22;8742;51.716;8.790;2022-09-25T05:58:29;13.00;99.90
17252;DHT22;8742;51.716;8.790;2022-09-25T06:00:59;13.00;99.90
17252;DHT22;8742;51.716;8.790;2022-09-25T06:03:26;13.00;99.90
17252;DHT22;8742;51.716;8.790;2022-09-25T06:05:55;13.00;99.90
17252;DHT22;8742;51.716;8.790;2022-09-25T06:08:22;13.00;99.90
17252;DHT22;8742;51.716;8.790;2022-09-25T06:10:51;13.00;99.90
17252;DHT22;8742;51.716;8.790;2022-09-25T06:13:20;13.00;99.90
17252;DHT22;8742;51.716;8.790;2022-09-25T06:15:47;13.00;99.90
17252;DHT22;8742;51.716;8.790;2022-09-25T06:18:17;13.00;99.90
17252;DHT22;8742;51.716;8.790;2022-09-25T06:20:44;13.00;99.90
17252;DHT22;8742;51.716;8.790;2022-09-25T06:23:13;13.00;99.90
17252;DHT22;8742;51.716;8.790;2022-09-25T06:25:40;13.00;99.90
17252;DHT22;8742;51.716;8.790;2022-09-25T06:28:07;13.00;99.90
17252;DHT22;8742;51.716;8.790;2022-09-25T06:30:35;13.00;99.90
17252;DHT22;8742;51.716;8.790;2022-09-25T06:33:04;13.00;99.90
17252;DHT22;8742;51.716;8.790;2022-09-25T06:35:34;13.00;99.90
17252;DHT22;8742;51.716;8.790;2022-09-25T06:38:03;13.00;99.90
17252;DHT22;8742;51.716;8.790;2022-09-25T06:40:31;13.00;99.90
17252;DHT22;8742;51.716;8.790;2022-09-25T06:42:59;13.00;99.90
17252;DHT22;8742;51.716;8.790;2022-09-25T06:45:28;13.00;99.90
17252;DHT22;8742;51.716;8.790;2022-09-25T06:48:00;13.00;99.90
17252;DHT22;8742;51.716;8.790;2022-09-25T06:50:28;13.00;99.90
17252;DHT22;8742;51.716;8.790;2022-09-25T06:52:57;13.00;99.90
17252;DHT22;8742;51.716;8.790;2022-09-25T06:55:25;13.00;99.90
17252;DHT22;8742;51.716;8.790;2022-09-25T06:57:53;13.00;99.90
17252;DHT22;8742;51.716;8.790;2022-09-25T07:00:20;13.00;99.90
17252;DHT22;8742;51.716;8.790;2022-09-25T07:02:47;13.00;99.90
17252;DHT22;8742;51.716;8.790;2022-09-25T07:05:32;13.00;99.90
17252;DHT22;8742;51.716;8.790;2022-09-25T07:07:59;13.00;99.90
17252;DHT22;8742;51.716;8.790;2022-09-25T07:10:26;13.00;99.90
17252;DHT22;8742;51.716;8.790;2022-09-25T07:12:54;13.00;99.90
17252;DHT22;8742;51.716;8.790;2022-09-25T07:15:21;13.00;99.90
17252;DHT22;8742;51.716;8.790;2022-09-25T07:17:48;13.00;99.90
17252;DHT22;8742;51.716;8.790;2022-09-25T07:20:15;13.00;99.90
17252;DHT22;8742;51.716;8.790;2022-09-25T07:22:42;13.00;99.90
17252;DHT22;8742;51.716;8.790;2022-09-25T07:25:09;13.00;99.90
17252;DHT22;8742;51.716;8.790;2022-09-25T07:27:37;13.00;99.90
17252;DHT22;8742;51.716;8.790;2022-09-25T07:30:07;13.00;99.90
17252;DHT22;8742;51.716;8.790;2022-09-25T07:32:34;13.10;99.90
17252;DHT22;8742;51.716;8.790;2022-09-25T07:35:01;13.10;99.90
17252;DHT22;8742;51.716;8.790;2022-09-25T07:37:28;13.10;99.90
17252;DHT22;8742;51.716;8.790;2022-09-25T07:39:55;13.10;99.90
17252;DHT22;8742;51.716;8.790;2022-09-25T07:42:22;13.10;99.90
17252;DHT22;8742;51.716;8.790;2022-09-25T07:44:49;13.10;99.90
17252;DHT22;8742;51.716;8.790;2022-09-25T07:47:17;13.10;99.90
17252;DHT22;8742;51.716;8.790;2022-09-25T07:49:44;13.20;99.90
17252;DHT22;8742;51.716;8.790;2022-09-25T07:52:11;13.20;99.90
17252;DHT22;8742;51.716;8.790;2022-09-25T07:54:39;13.20;99.90
17252;DHT22;8742;51.716;8.790;2022-09-25T07:57:05;13.20;99.90
17252;DHT22;8742;51.716;8.790;2022-09-25T07:59:32;13.20;99.90
17252;DHT22;8742;51.716;8.790;2022-09-25T08:01:59;13.20;99.90
17252;DHT22;8742;51.716;8.790;2022-09-25T08:04:28;13.30;99.90
17252;DHT22;8742;51.716;8.790;2022-09-25T08:06:57;13.30;99.90
17252;DHT22;8742;51.716;8.790;2022-09-25T08:09:24;13.30;99.90
17252;DHT22;8742;51.716;8.790;2022-09-25T08:11:51;13.40;99.90
17252;DHT22;8742;51.716;8.790;2022-09-25T08:14:18;13.40;99.90
17252;DHT22;8742;51.716;8.790;2022-09-25T08:16:45;13.40;99.90
17252;DHT22;8742;51.716;8.790;2022-09-25T08:19:12;13.40;99.90
17252;DHT22;8742;51.716;8.790;2022-09-25T08:21:43;13.40;99.90
17252;DHT22;8742;51.716;8.790;2022-09-25T08:24:11;13.40;99.90
17252;DHT22;8742;51.716;8.790;2022-09-25T08:26:37;13.40;99.90
17252;DHT22;8742;51.716;8.790;2022-09-25T08:29:04;13.40;99.90
17252;DHT22;8742;51.716;8.790;2022-09-25T08:31:33;13.40;99.90
17252;DHT22;8742;51.716;8.790;2022-09-25T08:34:00;13.40;99.90
17252;DHT22;8742;51.716;8.790;2022-09-25T08:36:26;13.50;99.90
17252;DHT22;8742;51.716;8.790;2022-09-25T08:38:55;13.50;99.90
17252;DHT22;8742;51.716;8.790;2022-09-25T08:41:24;13.50;99.90
17252;DHT22;8742;51.716;8.790;2022-09-25T08:43:57;13.50;99.90
17252;DHT22;8742;51.716;8.790;2022-09-25T08:46:34;13.50;99.90
17252;DHT22;8742;51.716;8.790;2022-09-25T08:49:20;13.50;99.90
17252;DHT22;8742;51.716;8.790;2022-09-25T08:51:53;13.50;99.90
17252;DHT22;8742;51.716;8.790;2022-09-25T08:54:25;13.50;99.90
17252;DHT22;8742;51.716;8.790;2022-09-25T08:56:54;13.50;99.90
17252;DHT22;8742;51.716;8.790;2022-09-25T08:59:25;13.50;99.90
17252;DHT22;8742;51.716;8.790;2022-09-25T09:01:56;13.50;99.90
17252;DHT22;8742;51.716;8.790;2022-09-25T09:04:28;13.50;99.90
17252;DHT22;8742;51.716;8.790;2022-09-25T09:07:02;13.50;99.90
17252;DHT22;8742;51.716;8.790;2022-09-25T09:09:35;13.60;99.90
17252;DHT22;8742;51.716;8.790;2022-09-25T09:12:09;13.60;99.90
17252;DHT22;8742;51.716;8.790;2022-09-25T09:14:42;13.60;99.90
17252;DHT22;8742;51.716;8.790;2022-09-25T09:17:15;13.60;99.90
17252;DHT22;8742;51.716;8.790;2022-09-25T09:19:46;13.60;99.90
17252;DHT22;8742;51.716;8.790;2022-09-25T09:22:16;13.60;99.90
17252;DHT22;8742;51.716;8.790;2022-09-25T09:24:54;13.60;99.90
17252;DHT22;8742;51.716;8.790;2022-09-25T09:27:44;13.60;99.90
17252;DHT22;8742;51.716;8.790;2022-09-25T09:30:15;13.70;99.90
17252;DHT22;8742;51.716;8.790;2022-09-25T09:32:59;13.70;99.90
17252;DHT22;8742;51.716;8.790;2022-09-25T09:35:33;13.80;99.90
17252;DHT22;8742;51.716;8.790;2022-09-25T09:38:12;13.80;99.90
17252;DHT22;8742;51.716;8.790;2022-09-25T09:43:54;13.80;99.90
17252;DHT22;8742;51.716;8.790;2022-09-25T09:46:33;13.90;99.90
17252;DHT22;8742;51.716;8.790;2022-09-25T09:49:07;13.90;99.90
17252;DHT22;8742;51.716;8.790;2022-09-25T09:51:40;13.90;99.90
17252;DHT22;8742;51.716;8.790;2022-09-25T09:54:11;14.00;99.90
17252;DHT22;8742;51.716;8.790;2022-09-25T09:56:43;14.00;99.90
17252;DHT22;8742;51.716;8.790;2022-09-25T09:59:14;14.10;99.90
17252;DHT22;8742;51.716;8.790;2022-09-25T10:01:44;14.10;99.90
17252;DHT22;8742;51.716;8.790;2022-09-25T10:04:15;14.10;99.90
17252;DHT22;8742;51.716;8.790;2022-09-25T10:06:46;14.20;99.90
17252;DHT22;8742;51.716;8.790;2022-09-25T10:09:14;14.30;99.90
17252;DHT22;8742;51.716;8.790;2022-09-25T10:11:44;14.40;99.90
17252;DHT22;8742;51.716;8.790;2022-09-25T10:14:15;14.50;99.90
17252;DHT22;8742;51.716;8.790;2022-09-25T10:16:46;14.50;99.90
17252;DHT22;8742;51.716;8.790;2022-09-25T10:19:17;14.70;99.90
17252;DHT22;8742;51.716;8.790;2022-09-25T10:21:48;14.90;99.90
17252;DHT22;8742;51.716;8.790;2022-09-25T10:24:47;15.00;99.90
17252;DHT22;8742;51.716;8.790;2022-09-25T10:27:24;15.10;99.90
17252;DHT22;8742;51.716;8.790;2022-09-25T10:30:14;15.30;99.90
17252;DHT22;8742;51.716;8.790;2022-09-25T10:35:14;15.80;99.90
17252;DHT22;8742;51.716;8.790;2022-09-25T10:40:23;16.20;99.90
17252;DHT22;8742;51.716;8.790;2022-09-25T10:43:03;16.40;99.90
17252;DHT22;8742;51.716;8.790;2022-09-25T10:45:31;16.50;99.90
17252;DHT22;8742;51.716;8.790;2022-09-25T10:47:59;16.60;99.90
17252;DHT22;8742;51.716;8.790;2022-09-25T10:50:43;16.60;99.90
17252;DHT22;8742;51.716;8.790;2022-09-25T10:53:24;16.60;99.90
17252;DHT22;8742;51.716;8.790;2022-09-25T10:56:00;16.50;99.90
17252;DHT22;8742;51.716;8.790;2022-09-25T10:58:35;16.40;99.90
17252;DHT22;8742;51.716;8.790;2022-09-25T11:01:03;16.50;99.90
17252;DHT22;8742;51.716;8.790;2022-09-25T11:03:32;16.60;99.90
17252;DHT22;8742;51.716;8.790;2022-09-25T11:06:02;16.80;99.90
17252;DHT22;8742;51.716;8.790;2022-09-25T11:08:34;16.90;99.90
17252;DHT22;8742;51.716;8.790;2022-09-25T11:13:37;17.20;99.90
17252;DHT22;8742;51.716;8.790;2022-09-25T11:16:06;17.30;99.90
17252;DHT22;8742;51.716;8.790;2022-09-25T11:18:40;17.40;99.90
17252;DHT22;8742;51.716;8.790;2022-09-25T11:21:18;17.50;99.90
17252;DHT22;8742;51.716;8.790;2022-09-25T11:24:04;17.50;99.90
17252;DHT22;8742;51.716;8.790;2022-09-25T11:26:35;17.50;99.90
17252;DHT22;8742;51.716;8.790;2022-09-25T11:29:10;17.40;99.90
17252;DHT22;8742;51.716;8.790;2022-09-25T11:31:42;17.40;99.90
17252;DHT22;8742;51.716;8.790;2022-09-25T11:34:18;17.30;99.90
17252;DHT22;8742;51.716;8.790;2022-09-25T11:36:51;17.20;99.90
17252;DHT22;8742;51.716;8.790;2022-09-25T11:39:24;17.30;99.90
17252;DHT22;8742;51.716;8.790;2022-09-25T11:42:13;17.50;99.90
17252;DHT22;8742;51.716;8.790;2022-09-25T11:44:48;17.70;99.90
17252;DHT22;8742;51.716;8.790;2022-09-25T11:47:22;17.80;99.90
17252;DHT22;8742;51.716;8.790;2022-09-25T11:49:51;17.70;99.90
17252;DHT22;8742;51.716;8.790;2022-09-25T11:52:25;17.70;99.90
17252;DHT22;8742;51.716;8.790;2022-09-25T11:55:08;17.50;99.90
17252;DHT22;8742;51.716;8.790;2022-09-25T11:57:45;17.40;99.90
17252;DHT22;8742;51.716;8.790;2022-09-25T12:00:18;17.20;99.90
17252;DHT22;8742;51.716;8.790;2022-09-25T12:03:01;17.00;99.90
17252;DHT22;8742;51.716;8.790;2022-09-25T12:05:50;16.90;99.90
17252;DHT22;8742;51.716;8.790;2022-09-25T12:08:32;16.70;99.90
17252;DHT22;8742;51.716;8.790;2022-09-25T12:11:09;16.50;99.90
17252;DHT22;8742;51.716;8.790;2022-09-25T12:13:40;16.40;99.90
17252;DHT22;8742;51.716;8.790;2022-09-25T12:16:16;16.20;99.90
17252;DHT22;8742;51.716;8.790;2022-09-25T12:18:59;16.10;99.90
17252;DHT22;8742;51.716;8.790;2022-09-25T12:21:33;16.00;99.90
17252;DHT22;8742;51.716;8.790;2022-09-25T12:24:11;15.90;99.90
17252;DHT22;8742;51.716;8.790;2022-09-25T12:26:47;15.80;99.90
17252;DHT22;8742;51.716;8.790;2022-09-25T12:29:27;15.80;99.90
17252;DHT22;8742;51.716;8.790;2022-09-25T12:32:04;15.80;99.90
17252;DHT22;8742;51.716;8.790;2022-09-25T12:34:52;15.80;99.90
17252;DHT22;8742;51.716;8.790;2022-09-25T12:37:27;15.80;99.90
17252;DHT22;8742;51.716;8.790;2022-09-25T12:39:58;15.90;99.90
17252;DHT22;8742;51.716;8.790;2022-09-25T12:42:37;15.90;99.90
17252;DHT22;8742;51.716;8.790;2022-09-25T12:45:15;16.00;99.90
17252;DHT22;8742;51.716;8.790;2022-09-25T12:47:53;16.10;99.90
17252;DHT22;8742;51.716;8.790;2022-09-25T12:50:25;16.30;99.90
17252;DHT22;8742;51.716;8.790;2022-09-25T12:52:56;16.40;99.90
17252;DHT22;8742;51.716;8.790;2022-09-25T12:55:28;16.50;99.90
17252;DHT22;8742;51.716;8.790;2022-09-25T12:58:06;16.60;99.90
17252;DHT22;8742;51.716;8.790;2022-09-25T13:00:38;16.60;99.90
17252;DHT22;8742;51.716;8.790;2022-09-25T13:03:13;16.60;99.90
17252;DHT22;8742;51.716;8.790;2022-09-25T13:05:45;16.70;99.90
17252;DHT22;8742;51.716;8.790;2022-09-25T13:08:17;16.70;99.90
17252;DHT22;8742;51.716;8.790;2022-09-25T13:10:47;16.70;99.90
17252;DHT22;8742;51.716;8.790;2022-09-25T13:13:19;16.70;99.90
17252;DHT22;8742;51.716;8.790;2022-09-25T13:15:49;16.70;99.90
17252;DHT22;8742;51.716;8.790;2022-09-25T13:18:20;16.60;99.90
17252;DHT22;8742;51.716;8.790;2022-09-25T13:20:52;16.60;99.90
17252;DHT22;8742;51.716;8.790;2022-09-25T13:23:30;16.60;99.90
17252;DHT22;8742;51.716;8.790;2022-09-25T13:26:01;16.60;99.90
17252;DHT22;8742;51.716;8.790;2022-09-25T13:28:38;16.60;99.90
17252;DHT22;8742;51.716;8.790;2022-09-25T13:31:09;16.70;99.90
17252;DHT22;8742;51.716;8.790;2022-09-25T13:33:46;16.80;99.90
17252;DHT22;8742;51.716;8.790;2022-09-25T13:36:30;17.00;99.90
17252;DHT22;8742;51.716;8.790;2022-09-25T13:38:59;17.10;99.90
17252;DHT22;8742;51.716;8.790;2022-09-25T13:41:53;17.10;99.90
17252;DHT22;8742;51.716;8.790;2022-09-25T13:44:50;17.10;99.90
17252;DHT22;8742;51.716;8.790;2022-09-25T13:47:53;17.00;99.90
17252;DHT22;8742;51.716;8.790;2022-09-25T13:50:30;17.00;99.90
17252;DHT22;8742;51.716;8.790;2022-09-25T13:53:15;16.90;99.90
17252;DHT22;8742;51.716;8.790;2022-09-25T13:56:22;16.80;99.90
17252;DHT22;8742;51.716;8.790;2022-09-25T14:01:46;16.70;99.90
17252;DHT22;8742;51.716;8.790;2022-09-25T14:04:20;16.60;99.90
17252;DHT22;8742;51.716;8.790;2022-09-25T14:06:53;16.60;99.90
17252;DHT22;8742;51.716;8.790;2022-09-25T14:09:24;16.50;99.90
17252;DHT22;8742;51.716;8.790;2022-09-25T14:12:03;16.50;99.90
17252;DHT22;8742;51.716;8.790;2022-09-25T14:14:38;16.50;99.90
17252;DHT22;8742;51.716;8.790;2022-09-25T14:17:05;16.60;99.90
17252;DHT22;8742;51.716;8.790;2022-09-25T14:19:38;16.60;99.90
17252;DHT22;8742;51.716;8.790;2022-09-25T14:22:17;16.70;99.90
17252;DHT22;8742;51.716;8.790;2022-09-25T14:24:45;16.90;99.90
17252;DHT22;8742;51.716;8.790;2022-09-25T14:27:18;17.00;99.90
17252;DHT22;8742;51.716;8.790;2022-09-25T14:29:47;17.10;99.90
17252;DHT22;8742;51.716;8.790;2022-09-25T14:32:23;17.10;99.90
17252;DHT22;8742;51.716;8.790;2022-09-25T14:35:02;17.10;99.90
17252;DHT22;8742;51.716;8.790;2022-09-25T14:37:51;17.20;99.90
17252;DHT22;8742;51.716;8.790;2022-09-25T14:40:22;17.30;99.90
17252;DHT22;8742;51.716;8.790;2022-09-25T14:43:05;17.30;99.90
17252;DHT22;8742;51.716;8.790;2022-09-25T14:45:48;17.30;99.90
17252;DHT22;8742;51.716;8.790;2022-09-25T14:48:21;17.30;99.90
17252;DHT22;8742;51.716;8.790;2022-09-25T14:50:52;17.30;99.90
17252;DHT22;8742;51.716;8.790;2022-09-25T14:53:24;17.30;99.90
17252;DHT22;8742;51.716;8.790;2022-09-25T14:55:54;17.20;99.90
17252;DHT22;8742;51.716;8.790;2022-09-25T14:58:25;17.20;99.90
17252;DHT22;8742;51.716;8.790;2022-09-25T15:00:55;17.20;99.90
17252;DHT22;8742;51.716;8.790;2022-09-25T15:03:25;17.10;99.90
17252;DHT22;8742;51.716;8.790;2022-09-25T15:05:53;17.10;99.90
17252;DHT22;8742;51.716;8.790;2022-09-25T15:08:28;17.10;99.90
17252;DHT22;8742;51.716;8.790;2022-09-25T15:11:09;17.10;99.90
17252;DHT22;8742;51.716;8.790;2022-09-25T15:13:36;17.10;99.90
17252;DHT22;8742;51.716;8.790;2022-09-25T15:16:04;17.00;99.90
17252;DHT22;8742;51.716;8.790;2022-09-25T15:18:51;17.00;99.90
17252;DHT22;8742;51.716;8.790;2022-09-25T15:21:22;16.90;99.90
17252;DHT22;8742;51.716;8.790;2022-09-25T15:23:52;16.90;99.90
17252;DHT22;8742;51.716;8.790;2022-09-25T15:26:20;16.80;99.90
17252;DHT22;8742;51.716;8.790;2022-09-25T15:28:48;16.80;99.90
17252;DHT22;8742;51.716;8.790;2022-09-25T15:31:16;16.70;99.90
17252;DHT22;8742;51.716;8.790;2022-09-25T15:33:44;16.70;99.90
17252;DHT22;8742;51.716;8.790;2022-09-25T15:36:26;16.60;99.90
17252;DHT22;8742;51.716;8.790;2022-09-25T15:38:57;16.60;99.90
17252;DHT22;8742;51.716;8.790;2022-09-25T15:41:25;16.60;99.90
17252;DHT22;8742;51.716;8.790;2022-09-25T15:44:10;16.50;99.90
17252;DHT22;8742;51.716;8.790;2022-09-25T15:46:39;16.50;99.90
17252;DHT22;8742;51.716;8.790;2022-09-25T15:49:07;16.60;99.90
17252;DHT22;8742;51.716;8.790;2022-09-25T15:51:45;16.60;99.90
17252;DHT22;8742;51.716;8.790;2022-09-25T15:54:29;16.60;99.90
17252;DHT22;8742;51.716;8.790;2022-09-25T15:56:57;16.60;99.90
17252;DHT22;8742;51.716;8.790;2022-09-25T15:59:28;16.60;99.90
17252;DHT22;8742;51.716;8.790;2022-09-25T16:01:56;16.50;99.90
17252;DHT22;8742;51.716;8.790;2022-09-25T16:04:46;16.50;99.90
17252;DHT22;8742;51.716;8.790;2022-09-25T16:07:23;16.50;99.90
17252;DHT22;8742;51.716;8.790;2022-09-25T16:09:54;16.50;99.90
17252;DHT22;8742;51.716;8.790;2022-09-25T16:12:26;16.50;99.90
17252;DHT22;8742;51.716;8.790;2022-09-25T16:14:55;16.50;99.90
17252;DHT22;8742;51.716;8.790;2022-09-25T16:17:25;16.40;99.90
17252;DHT22;8742;51.716;8.790;2022-09-25T16:20:04;16.40;99.90
17252;DHT22;8742;51.716;8.790;2022-09-25T16:22:38;16.40;99.90
17252;DHT22;8742;51.716;8.790;2022-09-25T16:25:19;16.40;99.90
17252;DHT22;8742;51.716;8.790;2022-09-25T16:27:51;16.40;99.90